Time;durP1;ratioP1;P1;durP2;ratioP2;P2;SDS_P1;SDS_P2;PMS_P1;PMS_P2;Temp;Humidity;BMP_temperature;BMP_pressure;BME280_temperature;BME280_humidity;BME280_pressure;Samples;Min_cycle;Max_cycle;Signal;HPM_P1;HPM_P2
2022/04/16 00:00:47;;;;;;;5.70;4.20;;;;;;;6.71;80.39;100815.21;128617;1288;99413;-81
2022/04/16 00:03:50;;;;;;;4.70;3.70;;;;;;;6.62;80.92;100818.88;128450;1288;113697;-82
2022/04/16 00:06:52;;;;;;;5.50;4.10;;;;;;;6.62;80.20;100820.48;128485;1288;100541;-81
2022/04/16 00:09:55;;;;;;;4.70;4.00;;;;;;;6.65;80.37;100818.24;128480;1288;99483;-81
2022/04/16 00:12:58;;;;;;;5.00;4.10;;;;;;;6.64;80.35;100823.50;128406;1288;100551;-81
2022/04/16 00:16:01;;;;;;;4.40;3.20;;;;;;;6.65;79.94;100821.67;128577;1288;99399;-81
2022/04/16 00:19:04;;;;;;;4.40;3.00;;;;;;;6.67;79.61;100822.40;128561;1288;99334;-81
2022/04/16 00:22:12;;;;;;;4.00;3.20;;;;;;;6.68;79.31;100826.75;128544;1288;100515;-80
2022/04/16 00:25:16;;;;;;;4.50;3.50;;;;;;;6.70;79.09;100832.94;128726;1288;297804;-80
2022/04/16 00:28:19;;;;;;;4.30;3.10;;;;;;;6.75;78.99;100835.25;128472;1287;113684;-81
2022/04/16 00:31:22;;;;;;;3.90;3.40;;;;;;;6.77;78.55;100840.38;129084;1288;100128;-80
2022/04/16 00:34:24;;;;;;;4.80;3.60;;;;;;;6.77;78.85;100842.84;129724;1288;99379;-81
2022/04/16 00:37:27;;;;;;;5.10;3.10;;;;;;;6.73;78.68;100846.38;129713;1288;100624;-81
2022/04/16 00:40:30;;;;;;;3.70;3.20;;;;;;;6.67;78.59;100852.61;128243;1288;99470;-83
2022/04/16 00:43:33;;;;;;;4.70;3.60;;;;;;;6.66;78.75;100854.59;128590;1288;100558;-82
2022/04/16 00:46:36;;;;;;;4.50;3.60;;;;;;;6.69;78.35;100851.41;128601;1288;99818;-83
2022/04/16 00:49:39;;;;;;;5.00;4.00;;;;;;;6.68;78.10;100856.05;128614;1286;99382;-83
2022/04/16 00:52:43;;;;;;;4.40;3.70;;;;;;;6.66;77.74;100861.33;128229;1288;99370;-81
2022/04/16 00:55:46;;;;;;;4.60;3.80;;;;;;;6.63;77.61;100866.55;128575;1288;99380;-81
2022/04/16 00:58:49;;;;;;;4.50;3.80;;;;;;;6.59;77.58;100865.41;128606;1288;99385;-81
2022/04/16 01:01:52;;;;;;;4.70;3.90;;;;;;;6.53;77.78;100861.59;128671;1288;99457;-80
2022/04/16 01:04:54;;;;;;;5.20;3.80;;;;;;;6.51;77.61;100866.39;128542;1288;99839;-81
2022/04/16 01:07:58;;;;;;;6.30;3.90;;;;;;;6.53;77.50;100866.77;128360;1288;99401;-82
2022/04/16 01:11:01;;;;;;;5.80;4.10;;;;;;;6.56;77.74;100873.77;128536;1288;113348;-83
2022/04/16 01:14:04;;;;;;;6.00;4.50;;;;;;;6.58;77.49;100877.11;128547;1288;99874;-80
2022/04/16 01:17:07;;;;;;;6.70;4.10;;;;;;;6.62;77.15;100877.02;128375;1288;100452;-81
2022/04/16 01:20:10;;;;;;;5.00;4.00;;;;;;;6.51;77.06;100877.50;128387;1288;99378;-81
2022/04/16 01:23:14;;;;;;;5.20;4.10;;;;;;;6.39;77.15;100879.25;128585;1288;100532;-80
2022/04/16 01:26:17;;;;;;;5.00;3.90;;;;;;;6.34;77.42;100882.94;128585;1288;113708;-86
2022/04/16 01:29:20;;;;;;;5.90;3.90;;;;;;;6.29;77.45;100884.90;130063;1288;99366;-84
2022/04/16 01:32:25;;;;;;;4.70;3.90;;;;;;;6.20;77.43;100891.70;128662;1288;118959;-82
2022/04/16 01:35:27;;;;;;;5.80;3.90;;;;;;;6.23;77.53;100897.12;128649;1288;100546;-81
2022/04/16 01:38:30;;;;;;;5.80;4.40;;;;;;;6.31;77.44;100901.92;128626;1288;99958;-84
2022/04/16 01:41:33;;;;;;;5.40;4.30;;;;;;;6.27;77.21;100899.89;128434;1288;100554;-83
2022/04/16 01:44:36;;;;;;;5.90;4.20;;;;;;;6.28;77.35;100907.04;128481;1288;99436;-84
2022/04/16 01:47:39;;;;;;;5.10;4.00;;;;;;;6.26;77.15;100910.51;128623;1288;99342;-82
2022/04/16 01:50:42;;;;;;;4.10;3.50;;;;;;;6.22;77.21;100911.50;128482;1288;99363;-79
2022/04/16 01:53:45;;;;;;;5.70;3.90;;;;;;;6.22;76.90;100916.26;128251;1288;99426;-80
2022/04/16 01:56:47;;;;;;;4.20;3.30;;;;;;;6.19;76.93;100918.48;128393;1288;100075;-80
2022/04/16 01:59:50;;;;;;;4.20;3.50;;;;;;;6.19;76.88;100927.65;128197;1288;99373;-79
2022/04/16 02:02:53;;;;;;;4.50;3.10;;;;;;;6.23;76.72;100927.73;128252;1287;100462;-81
2022/04/16 02:05:56;;;;;;;4.60;3.40;;;;;;;6.24;76.74;100933.83;128395;1288;100596;-82
2022/04/16 02:08:58;;;;;;;4.10;3.20;;;;;;;6.12;76.50;100937.33;128459;1288;100572;-82
2022/04/16 02:12:01;;;;;;;4.30;3.00;;;;;;;6.06;76.62;100937.04;128450;1288;99510;-80
2022/04/16 02:15:06;;;;;;;3.50;2.60;;;;;;;6.05;76.37;100942.38;128520;1288;108876;-79
2022/04/16 02:18:09;;;;;;;3.50;3.00;;;;;;;6.00;76.27;100937.81;128421;1288;108810;-80
2022/04/16 02:21:12;;;;;;;3.70;3.00;;;;;;;5.98;76.38;100941.30;128224;1288;99508;-80
2022/04/16 02:24:14;;;;;;;4.10;3.30;;;;;;;5.98;76.09;100939.75;128374;1288;99367;-80
2022/04/16 02:27:17;;;;;;;4.80;3.40;;;;;;;5.93;76.31;100946.90;128507;1288;100659;-82
2022/04/16 02:30:21;;;;;;;4.10;3.30;;;;;;;5.88;76.18;100947.62;128557;1288;99501;-80
2022/04/16 02:33:23;;;;;;;5.10;3.30;;;;;;;5.83;76.39;100952.54;128267;1288;100067;-79
2022/04/16 02:36:26;;;;;;;17.30;10.40;;;;;;;5.80;76.44;100958.92;128169;1288;100551;-81
2022/04/16 02:39:29;;;;;;;12.60;8.90;;;;;;;5.80;76.39;100961.19;128300;1288;99442;-76
2022/04/16 02:42:34;;;;;;;5.90;4.40;;;;;;;5.85;76.46;100963.30;128197;1288;99943;-78
2022/04/16 02:48:58;;;;;;;8.10;4.40;;;;;;;5.94;75.99;100969.45;128486;1288;108807;-83
2022/04/16 02:52:01;;;;;;;6.50;3.80;;;;;;;5.87;75.96;100972.17;128420;1288;99808;-82
2022/04/16 02:55:05;;;;;;;5.10;3.90;;;;;;;5.88;76.32;100977.92;128418;1288;100743;-82
2022/04/16 02:58:08;;;;;;;4.90;3.70;;;;;;;5.84;76.12;100975.77;128471;1288;108740;-82
2022/04/16 03:01:11;;;;;;;4.70;3.70;;;;;;;5.80;76.09;100976.05;128044;1290;99347;-80
2022/04/16 03:04:14;;;;;;;4.20;3.60;;;;;;;5.79;76.25;100980.14;128427;1288;108798;-81
2022/04/16 03:07:18;;;;;;;5.30;3.70;;;;;;;5.82;76.02;100984.23;128644;1288;108511;-80
2022/04/16 03:10:20;;;;;;;4.70;3.70;;;;;;;5.80;75.76;100990.50;128492;1288;108934;-80
2022/04/16 03:13:23;;;;;;;5.20;4.00;;;;;;;5.80;75.45;100991.58;128525;1288;99932;-79
2022/04/16 03:19:47;;;;;;;4.10;3.60;;;;;;;5.86;75.53;101001.44;128721;1287;108976;-80
2022/04/16 03:22:49;;;;;;;4.70;3.70;;;;;;;5.82;75.38;101005.76;128512;1288;99792;-80
2022/04/16 03:25:53;;;;;;;4.60;3.30;;;;;;;5.79;75.43;101011.21;128542;1288;100538;-81
2022/04/16 03:28:56;;;;;;;4.20;3.10;;;;;;;5.72;74.89;101012.41;128625;1288;108730;-80
2022/04/16 03:31:59;;;;;;;6.10;3.20;;;;;;;5.67;74.89;101020.33;128436;1288;99475;-82
2022/04/16 03:35:03;;;;;;;4.40;3.30;;;;;;;5.67;74.63;101026.69;128609;1287;99789;-83
2022/04/16 03:38:06;;;;;;;4.30;3.10;;;;;;;5.71;73.94;101033.67;128576;1288;108092;-77
2022/04/16 03:41:09;;;;;;;5.20;3.20;;;;;;;5.66;73.97;101040.04;128357;1288;108790;-78
2022/04/16 03:44:12;;;;;;;4.10;3.00;;;;;;;5.63;73.87;101042.45;128274;1287;99878;-78
2022/04/16 03:47:14;;;;;;;3.70;3.10;;;;;;;5.63;74.06;101042.54;128325;1288;99403;-79
2022/04/16 03:50:18;;;;;;;4.30;3.10;;;;;;;5.60;74.03;101041.67;128351;1288;99460;-80
2022/04/16 03:53:20;;;;;;;4.00;2.70;;;;;;;5.57;74.21;101050.13;128327;1287;99924;-79
2022/04/16 03:59:59;;;;;;;3.80;2.90;;;;;;;5.41;72.81;101064.63;128360;1288;108784;-79
2022/04/16 04:03:02;;;;;;;3.90;2.50;;;;;;;5.35;73.09;101065.73;128417;1288;108669;-79
2022/04/16 04:06:05;;;;;;;3.30;2.60;;;;;;;5.36;72.95;101073.23;128244;1288;99875;-80
2022/04/16 04:09:07;;;;;;;2.70;2.20;;;;;;;5.26;71.43;101083.92;128208;1288;99384;-79
2022/04/16 04:12:11;;;;;;;3.10;2.40;;;;;;;5.11;71.81;101083.48;128460;1288;99436;-79
2022/04/16 04:15:13;;;;;;;3.30;2.70;;;;;;;4.99;71.24;101096.70;128070;1288;100521;-80
2022/04/16 04:18:16;;;;;;;3.40;2.50;;;;;;;4.88;71.45;101091.57;128265;1288;99974;-80
2022/04/16 04:21:19;;;;;;;4.60;2.60;;;;;;;4.81;71.67;101099.80;128169;1288;99493;-79
2022/04/16 04:24:21;;;;;;;3.00;2.50;;;;;;;4.73;71.52;101104.36;128196;1288;100433;-81
2022/04/16 04:27:24;;;;;;;3.50;2.40;;;;;;;4.69;71.57;101103.35;128426;1288;99441;-80
2022/04/16 04:30:29;;;;;;;3.70;2.40;;;;;;;4.67;71.57;101109.65;128430;1288;99419;-82
2022/04/16 04:33:33;;;;;;;3.20;2.30;;;;;;;4.74;71.62;101113.61;128345;1287;99450;-80
2022/04/16 04:36:36;;;;;;;3.60;2.60;;;;;;;4.76;71.32;101118.24;128188;1288;108916;-77
2022/04/16 04:39:38;;;;;;;3.00;2.10;;;;;;;4.85;71.59;101119.48;128405;1288;99897;-76
2022/04/16 04:42:41;;;;;;;3.00;2.50;;;;;;;4.94;71.13;101125.98;128456;1288;99492;-76
2022/04/16 04:45:46;;;;;;;3.70;2.60;;;;;;;5.02;70.32;101129.17;128447;1287;99461;-76
2022/04/16 04:48:49;;;;;;;3.90;2.60;;;;;;;5.04;70.31;101130.64;129064;1288;108779;-78
2022/04/16 04:51:51;;;;;;;2.40;2.20;;;;;;;5.06;70.12;101138.98;129542;1288;99479;-78
2022/04/16 04:54:54;;;;;;;2.70;2.30;;;;;;;5.07;69.97;101141.20;128799;1288;99475;-76
2022/04/16 04:57:57;;;;;;;3.30;2.20;;;;;;;5.11;70.20;101151.17;128498;1288;99475;-74
2022/04/16 05:01:00;;;;;;;3.10;2.40;;;;;;;5.19;70.04;101148.23;128434;1288;100551;-74
2022/04/16 05:04:03;;;;;;;3.30;2.20;;;;;;;5.25;70.61;101151.88;128217;1288;99348;-73
2022/04/16 05:07:07;;;;;;;2.80;2.10;;;;;;;5.29;69.33;101153.76;128220;1288;100983;-77
2022/04/16 05:10:10;;;;;;;3.10;2.10;;;;;;;5.32;70.11;101160.45;128314;1288;99451;-76
2022/04/16 05:13:13;;;;;;;3.60;2.20;;;;;;;5.38;69.35;101168.17;128901;1287;108782;-78
2022/04/16 05:16:15;;;;;;;3.40;2.20;;;;;;;5.42;69.58;101174.27;128417;1287;100547;-78
2022/04/16 05:19:18;;;;;;;3.00;1.90;;;;;;;5.56;69.48;101179.62;128384;1287;100532;-75
2022/04/16 05:22:21;;;;;;;2.90;2.20;;;;;;;5.66;69.52;101179.84;128444;1287;99351;-76
2022/04/16 05:25:24;;;;;;;2.50;1.90;;;;;;;5.67;68.64;101179.92;128657;1287;100548;-78
2022/04/16 05:28:27;;;;;;;2.50;2.00;;;;;;;5.64;69.03;101181.71;128415;1287;100026;-78
2022/04/16 05:31:30;;;;;;;3.00;2.10;;;;;;;5.62;68.44;101183.08;128329;1287;100515;-78
2022/04/16 05:34:33;;;;;;;2.70;1.90;;;;;;;5.50;67.32;101192.13;128513;1287;99364;-84
2022/04/16 05:37:36;;;;;;;3.20;2.70;;;;;;;5.41;68.90;101192.36;128681;1287;99444;-82
2022/04/16 05:40:39;;;;;;;3.90;2.70;;;;;;;5.38;68.27;101200.63;128736;1287;99437;-81
2022/04/16 05:43:42;;;;;;;4.90;2.90;;;;;;;5.37;68.68;101205.65;128466;1287;100631;-79
2022/04/16 05:46:45;;;;;;;3.20;2.10;;;;;;;5.30;67.00;101213.67;128362;1288;99376;-80
2022/04/16 05:49:47;;;;;;;2.50;1.90;;;;;;;5.22;67.91;101217.71;128462;1287;99845;-79
2022/04/16 05:52:52;;;;;;;5.00;2.00;;;;;;;5.22;67.89;101211.87;128485;1287;99533;-79
2022/04/16 05:55:54;;;;;;;3.90;2.00;;;;;;;5.21;67.36;101219.86;128489;1287;99370;-79
2022/04/16 05:58:59;;;;;;;2.30;1.80;;;;;;;5.14;66.73;101219.62;128451;1287;100544;-79
2022/04/16 06:02:03;;;;;;;2.80;1.80;;;;;;;5.04;67.69;101220.19;128604;1287;108813;-79
2022/04/16 06:05:07;;;;;;;2.40;1.80;;;;;;;5.08;67.19;101223.67;128484;1287;107748;-79
2022/04/16 06:08:10;;;;;;;2.20;1.90;;;;;;;5.11;67.20;101233.16;128681;1287;109221;-85
2022/04/16 06:11:17;;;;;;;2.80;2.30;;;;;;;5.06;67.29;101229.78;128561;1287;99786;-78
2022/04/16 06:14:19;;;;;;;3.10;2.20;;;;;;;5.12;67.36;101230.99;128700;1287;107958;-82
2022/04/16 06:17:22;;;;;;;2.80;2.00;;;;;;;5.20;67.43;101231.08;128666;1288;99875;-83
2022/04/16 06:20:25;;;;;;;2.30;1.80;;;;;;;5.27;66.57;101242.94;128481;1288;100560;-79
2022/04/16 06:23:28;;;;;;;2.60;1.90;;;;;;;5.37;66.40;101238.97;128405;1288;99369;-80
2022/04/16 06:26:31;;;;;;;2.90;1.90;;;;;;;5.53;66.27;101243.81;128479;1288;99372;-88
2022/04/16 06:29:33;;;;;;;2.60;1.80;;;;;;;5.61;66.26;101247.91;128435;1288;99655;-78
2022/04/16 06:32:36;;;;;;;3.30;2.20;;;;;;;5.64;65.81;101249.30;128210;1288;100320;-77
2022/04/16 06:35:39;;;;;;;2.70;2.00;;;;;;;5.62;65.70;101251.18;128442;1288;99793;-77
2022/04/16 06:38:42;;;;;;;2.50;2.10;;;;;;;5.64;65.27;101253.20;128401;1288;99343;-77
2022/04/16 06:41:45;;;;;;;2.80;2.00;;;;;;;5.51;65.24;101264.78;128512;1287;100547;-79
2022/04/16 06:44:48;;;;;;;3.10;2.10;;;;;;;5.51;64.72;101262.27;128630;1287;99364;-88
2022/04/16 06:47:50;;;;;;;3.60;1.90;;;;;;;5.51;64.44;101261.95;128497;1287;99346;-82
2022/04/16 06:50:54;;;;;;;2.70;1.80;;;;;;;5.57;64.49;101269.20;128559;1287;99347;-83
2022/04/16 06:53:56;;;;;;;3.10;1.80;;;;;;;5.61;64.42;101268.73;128585;1287;99443;-83
2022/04/16 06:56:59;;;;;;;2.30;1.70;;;;;;;5.62;64.23;101271.66;128655;1287;99702;-84
2022/04/16 07:00:03;;;;;;;2.80;2.10;;;;;;;5.85;64.22;101266.67;128533;1287;100062;-79
2022/04/16 07:03:08;;;;;;;2.80;2.20;;;;;;;6.06;64.19;101262.05;128340;1287;99885;-79
2022/04/16 07:06:10;;;;;;;3.20;2.00;;;;;;;6.18;64.13;101266.91;128395;1287;99366;-79
2022/04/16 07:09:13;;;;;;;2.60;1.90;;;;;;;6.08;61.27;101276.37;128392;1287;99385;-79
2022/04/16 07:12:18;;;;;;;1.80;1.60;;;;;;;5.95;61.65;101276.88;128448;1288;99360;-78
2022/04/16 07:15:20;;;;;;;2.70;2.10;;;;;;;5.86;61.02;101284.14;128448;1287;99434;-80
2022/04/16 07:18:25;;;;;;;3.70;1.80;;;;;;;5.80;61.80;101286.77;128422;1287;100523;-81
2022/04/16 07:21:28;;;;;;;4.30;2.50;;;;;;;5.95;62.43;101288.73;128346;1287;99347;-80
2022/04/16 07:24:30;;;;;;;3.80;2.20;;;;;;;6.15;63.36;101280.37;128475;1287;99911;-80
2022/04/16 07:27:33;;;;;;;6.80;4.50;;;;;;;6.33;61.79;101281.49;128526;1288;99440;-81
2022/04/16 07:30:36;;;;;;;3.00;2.20;;;;;;;6.41;61.04;101289.98;128385;1287;100774;-77
2022/04/16 07:33:38;;;;;;;3.00;2.10;;;;;;;6.49;61.10;101289.30;128383;1288;100542;-83
2022/04/16 07:36:41;;;;;;;3.00;2.10;;;;;;;6.59;61.85;101291.80;128495;1288;99335;-80
2022/04/16 07:39:44;;;;;;;2.50;1.90;;;;;;;6.62;60.01;101298.31;128538;1287;99364;-84
2022/04/16 07:42:47;;;;;;;2.40;1.80;;;;;;;6.68;59.78;101299.48;128331;1287;100662;-77
2022/04/16 07:45:50;;;;;;;3.40;2.10;;;;;;;6.86;60.47;101296.35;128699;1287;99342;-77
2022/04/16 07:48:52;;;;;;;2.10;1.90;;;;;;;6.96;58.90;101302.05;128472;1287;100876;-81
2022/04/16 07:51:55;;;;;;;2.70;2.10;;;;;;;6.98;58.11;101305.13;128587;1287;99482;-79
2022/04/16 07:54:58;;;;;;;3.30;2.30;;;;;;;6.88;58.92;101311.27;128443;1288;99378;-78
2022/04/16 07:58:01;;;;;;;2.40;2.00;;;;;;;6.65;58.03;101317.04;128544;1287;100269;-81
2022/04/16 08:01:03;;;;;;;2.00;1.80;;;;;;;6.40;57.54;101322.38;128709;1287;99480;-83
2022/04/16 08:04:06;;;;;;;2.30;2.00;;;;;;;6.45;58.71;101324.57;128510;1287;99806;-78
2022/04/16 08:07:09;;;;;;;2.80;2.20;;;;;;;6.81;59.56;101319.54;128654;1287;99880;-77
2022/04/16 08:10:13;;;;;;;4.00;2.00;;;;;;;7.13;59.47;101320.86;128501;1287;99434;-79
2022/04/16 08:13:18;;;;;;;3.10;2.10;;;;;;;7.31;58.61;101329.24;128335;1287;99406;-77
2022/04/16 08:16:21;;;;;;;5.90;2.00;;;;;;;7.22;57.15;101325.08;128352;1287;100560;-83
2022/04/16 08:19:24;;;;;;;2.30;1.80;;;;;;;7.23;57.59;101327.83;128614;1287;99460;-81
2022/04/16 08:22:28;;;;;;;2.70;1.90;;;;;;;7.27;56.60;101328.45;128663;1287;99427;-81
2022/04/16 08:25:45;;;;;;;2.50;1.70;;;;;;;7.35;57.54;101327.70;128593;1287;100551;-81
2022/04/16 08:28:48;;;;;;;2.30;1.90;;;;;;;7.56;58.41;101328.92;128377;1287;99411;-81
2022/04/16 08:31:51;;;;;;;2.30;1.80;;;;;;;7.53;55.27;101339.79;128884;1287;99341;-80
2022/04/16 08:34:54;;;;;;;2.40;1.90;;;;;;;7.35;56.17;101335.48;128450;1287;99368;-80
2022/04/16 08:37:57;;;;;;;4.40;2.70;;;;;;;7.26;55.87;101342.48;128225;1287;100442;-80
2022/04/16 08:41:00;;;;;;;58.20;41.40;;;;;;;7.05;54.53;101350.11;128184;1287;99468;-80
2022/04/16 08:44:05;;;;;;;19.10;12.30;;;;;;;6.89;56.25;101349.93;128351;1286;99434;-80
2022/04/16 08:47:09;;;;;;;4.50;3.00;;;;;;;7.05;56.23;101358.77;128279;1287;101346;-80
2022/04/16 08:50:13;;;;;;;3.00;1.80;;;;;;;7.24;55.48;101355.17;128269;1287;99799;-80
2022/04/16 08:53:16;;;;;;;2.90;1.80;;;;;;;7.47;55.18;101356.29;128429;1287;99746;-80
2022/04/16 08:56:19;;;;;;;2.60;2.00;;;;;;;7.82;55.57;101352.27;128307;1286;99437;-80
2022/04/16 08:59:22;;;;;;;2.60;1.90;;;;;;;8.18;53.51;101352.32;128238;1287;100440;-81
2022/04/16 09:02:26;;;;;;;2.20;1.70;;;;;;;8.45;55.16;101350.24;128318;1287;99391;-81
2022/04/16 09:05:29;;;;;;;2.30;1.90;;;;;;;8.76;55.43;101352.20;128471;1287;99379;-80
2022/04/16 09:08:33;;;;;;;3.10;2.10;;;;;;;8.90;53.98;101352.65;128394;1287;99365;-80
2022/04/16 09:11:37;;;;;;;3.30;2.60;;;;;;;8.74;52.87;101352.87;128741;1287;100456;-81
2022/04/16 09:14:44;;;;;;;4.80;3.20;;;;;;;8.55;52.48;101359.45;128644;1287;99398;-80
2022/04/16 09:17:57;;;;;;;3.90;2.70;;;;;;;8.46;52.98;101359.20;128637;1287;99463;-80
2022/04/16 09:21:10;;;;;;;2.40;2.00;;;;;;;8.30;53.13;101365.30;128724;1287;100439;-80
2022/04/16 09:24:13;;;;;;;2.10;1.80;;;;;;;8.33;52.66;101361.56;128488;1287;99438;-80
2022/04/16 09:27:16;;;;;;;5.60;4.30;;;;;;;8.42;53.31;101364.13;128336;1288;99357;-80
2022/04/16 09:30:24;;;;;;;5.80;3.70;;;;;;;8.52;53.53;101359.65;128259;1288;99364;-80
2022/04/16 09:33:37;;;;;;;2.20;2.00;;;;;;;8.57;51.82;101374.39;127890;1290;99725;-78
2022/04/16 09:36:40;;;;;;;2.60;2.30;;;;;;;8.37;50.39;101370.83;128010;1290;99716;-80
2022/04/16 09:39:43;;;;;;;2.80;2.10;;;;;;;8.23;51.21;101369.01;127969;1290;102666;-78
2022/04/16 09:42:53;;;;;;;2.80;2.20;;;;;;;8.29;49.84;101366.45;128128;1290;99798;-80
2022/04/16 09:46:09;;;;;;;6.30;4.00;;;;;;;8.39;50.62;101359.86;127993;1290;99369;-80
2022/04/16 09:49:14;;;;;;;3.20;2.40;;;;;;;8.46;50.06;101373.41;128145;1290;99664;-80
2022/04/16 09:52:22;;;;;;;2.50;2.00;;;;;;;8.33;50.16;101379.29;128120;1291;100430;-79
2022/04/16 09:55:26;;;;;;;2.80;2.40;;;;;;;8.38;50.63;101376.81;127869;1289;99387;-79
2022/04/16 09:58:35;;;;;;;4.00;1.70;;;;;;;8.61;50.41;101372.49;127961;1290;99483;-79
2022/04/16 10:01:38;;;;;;;4.00;3.00;;;;;;;8.91;50.93;101368.33;128042;1290;99342;-79
2022/04/16 10:04:42;;;;;;;8.20;4.20;;;;;;;8.99;49.72;101373.05;128141;1291;99351;-79
2022/04/16 10:07:45;;;;;;;4.50;3.20;;;;;;;8.86;49.99;101372.44;128001;1290;122795;-79
2022/04/16 10:10:54;;;;;;;5.40;3.50;;;;;;;8.75;50.50;101369.16;127880;1290;100796;-78
2022/04/16 10:14:04;;;;;;;3.80;2.20;;;;;;;8.90;50.29;101371.79;128048;1288;99360;-80
2022/04/16 10:17:23;;;;;;;2.60;2.10;;;;;;;9.05;49.63;101372.25;128259;1290;122761;-80
2022/04/16 10:20:26;;;;;;;3.10;2.20;;;;;;;9.01;48.65;101370.75;128298;1288;101449;-79
2022/04/16 10:23:30;;;;;;;2.50;2.10;;;;;;;9.01;50.75;101371.13;128206;1289;100547;-80
2022/04/16 10:26:39;;;;;;;2.00;1.80;;;;;;;9.21;49.76;101376.52;128057;1290;99491;-79
2022/04/16 10:29:47;;;;;;;5.90;3.10;;;;;;;9.16;48.70;101373.00;127976;1290;100450;-79
2022/04/16 10:32:49;;;;;;;2.40;1.50;;;;;;;9.06;47.72;101377.32;127848;1290;99448;-78
2022/04/16 10:35:56;;;;;;;5.80;2.90;;;;;;;9.14;47.31;101376.38;128122;1290;100550;-78
2022/04/16 10:38:59;;;;;;;2.70;1.70;;;;;;;9.12;46.45;101376.16;128075;1290;99361;-79
2022/04/16 10:42:05;;;;;;;2.10;1.60;;;;;;;9.21;46.89;101376.69;128167;1289;99356;-79
2022/04/16 10:45:10;;;;;;;2.40;1.60;;;;;;;9.38;48.21;101379.68;128088;1290;99370;-79
2022/04/16 10:48:14;;;;;;;4.00;2.90;;;;;;;9.49;47.96;101379.02;127852;1290;122656;-78
2022/04/16 10:51:22;;;;;;;2.30;1.80;;;;;;;9.49;46.94;101388.41;127850;1290;101918;-79
2022/04/16 10:54:32;;;;;;;4.00;1.80;;;;;;;9.45;48.46;101385.54;128064;1290;100265;-80
2022/04/16 10:57:35;;;;;;;2.40;2.10;;;;;;;9.53;47.08;101383.30;128078;1290;100236;-78
2022/04/16 11:00:40;;;;;;;7.80;5.80;;;;;;;9.68;48.54;101383.54;128146;1289;99873;-78
2022/04/16 11:03:46;;;;;;;47.40;32.40;;;;;;;9.82;45.82;101384.25;128050;1288;122736;-78
2022/04/16 11:06:51;;;;;;;4.00;3.00;;;;;;;9.88;45.13;101384.52;128181;1288;100593;-78
2022/04/16 11:10:35;;;;;;;2.80;2.20;;;;;;;9.94;46.37;101385.64;130840;1275;99463;31
2022/04/16 11:13:40;;;;;;;4.10;2.00;;;;;;;9.94;46.35;101382.62;128878;1285;100477;-79
2022/04/16 11:16:44;;;;;;;3.90;2.10;;;;;;;9.99;46.43;101381.13;128976;1284;99437;-80
2022/04/16 11:19:48;;;;;;;2.50;1.90;;;;;;;9.97;46.21;101386.99;128932;1284;99632;-80
2022/04/16 11:22:51;;;;;;;4.30;2.50;;;;;;;10.11;47.17;101383.91;129050;1284;100525;-79
2022/04/16 11:35:59;;;;;;;5.30;2.70;;;;;;;10.51;45.30;101386.11;128917;1284;100100;-79
2022/04/16 11:39:02;;;;;;;7.30;5.50;;;;;;;10.43;46.28;101392.95;128749;1284;99616;-79
2022/04/16 11:42:07;;;;;;;2.80;2.00;;;;;;;10.45;46.44;101394.81;128731;1286;99813;-79
2022/04/16 11:45:11;;;;;;;2.40;1.80;;;;;;;10.53;44.41;101390.05;128769;1285;101023;-79
2022/04/16 11:48:14;;;;;;;3.90;1.50;;;;;;;10.59;45.17;101396.48;128716;1286;123444;-79
2022/04/16 11:51:21;;;;;;;2.50;1.90;;;;;;;10.68;45.64;101381.40;128889;1286;100539;-79
2022/04/16 11:54:30;;;;;;;6.40;3.40;;;;;;;10.67;46.53;101387.48;128376;1286;122044;-79
2022/04/16 11:57:33;;;;;;;3.20;2.20;;;;;;;10.57;45.88;101385.25;128433;1286;102239;-79
2022/04/16 12:00:47;;;;;;;2.30;1.50;;;;;;;10.51;44.81;101390.00;128688;1286;100235;-79
2022/04/16 12:03:52;;;;;;;2.20;1.70;;;;;;;10.56;44.34;101392.65;128674;1286;102238;-78
2022/04/16 12:06:54;;;;;;;2.40;1.70;;;;;;;10.66;45.47;101387.21;128472;1286;100263;-77
2022/04/16 12:10:01;;;;;;;1.90;1.40;;;;;;;10.84;43.85;101376.45;128579;1285;99471;-78
2022/04/16 12:13:17;;;;;;;2.30;1.80;;;;;;;10.91;43.81;101373.70;126055;1309;636044;-78
2022/04/16 12:16:23;;;;;;;2.50;1.80;;;;;;;10.71;43.49;101387.30;129341;1279;109200;-78
2022/04/16 12:19:32;;;;;;;2.50;2.30;;;;;;;10.57;42.01;101393.74;129341;1281;108755;-78
2022/04/16 12:22:49;;;;;;;4.80;3.30;;;;;;;10.50;42.52;101389.19;129296;1280;108829;-78
2022/04/16 12:26:06;;;;;;;4.90;3.20;;;;;;;10.53;40.89;101392.65;129236;1277;301271;-79
2022/04/16 12:29:12;;;;;;;3.00;2.70;;;;;;;10.42;41.80;101388.46;129628;1277;107725;-78
2022/04/16 12:32:26;;;;;;;3.30;2.10;;;;;;;10.32;42.21;101390.30;129548;1277;108678;-78
2022/04/16 12:35:33;;;;;;;1.80;1.60;;;;;;;10.23;42.47;101388.68;129592;1277;108892;-79
2022/04/16 12:38:39;;;;;;;3.40;2.80;;;;;;;10.39;42.61;101387.41;129532;1277;108970;-77
2022/04/16 12:41:44;;;;;;;2.60;2.20;;;;;;;10.50;42.50;101385.33;129545;1277;108930;-78
2022/04/16 12:44:50;;;;;;;6.60;4.40;;;;;;;10.36;41.58;101385.36;129673;1277;108740;-77
2022/04/16 12:47:56;;;;;;;1.80;1.60;;;;;;;10.25;42.68;101391.32;129664;1277;108242;-77
2022/04/16 12:51:02;;;;;;;1.90;1.60;;;;;;;10.39;42.23;101397.01;129577;1277;108693;-77
2022/04/16 12:54:07;;;;;;;1.90;1.50;;;;;;;10.63;41.53;101389.75;129527;1277;108820;-77
2022/04/16 12:57:12;;;;;;;13.60;9.40;;;;;;;10.75;41.76;101394.08;129447;1277;108661;-77
2022/04/16 13:00:19;;;;;;;5.70;4.40;;;;;;;10.80;41.66;101397.95;129305;1279;108657;-78
2022/04/16 13:03:24;;;;;;;19.70;14.00;;;;;;;10.92;41.70;101393.21;129369;1280;108702;-79
2022/04/16 13:06:30;;;;;;;4.00;2.90;;;;;;;10.92;42.20;101394.83;129428;1280;108872;-77
2022/04/16 13:09:35;;;;;;;7.90;6.00;;;;;;;10.96;40.59;101396.48;129384;1280;108685;-77
2022/04/16 13:12:43;;;;;;;4.90;3.90;;;;;;;11.13;41.88;101389.16;130056;1271;108792;-77
2022/04/16 13:15:49;;;;;;;7.00;5.30;;;;;;;11.22;41.10;101388.77;130156;1271;107045;-78
2022/04/16 13:18:54;;;;;;;4.30;3.20;;;;;;;11.01;40.74;101395.16;130094;1271;108750;-79
2022/04/16 13:21:59;;;;;;;2.70;2.20;;;;;;;10.87;39.78;101399.19;130170;1271;108912;-79
2022/04/16 13:25:07;;;;;;;2.40;1.70;;;;;;;10.82;37.44;101392.31;130044;1271;108725;-78
2022/04/16 13:28:13;;;;;;;4.20;1.80;;;;;;;10.78;39.25;101383.86;130345;1271;108657;-78
2022/04/16 13:31:18;;;;;;;3.30;2.30;;;;;;;10.88;39.60;101385.88;130297;1271;108962;-78
2022/04/16 13:34:24;;;;;;;3.10;2.00;;;;;;;10.93;39.65;101394.42;130218;1271;108684;-78
2022/04/16 13:37:29;;;;;;;2.20;2.00;;;;;;;10.90;38.83;101389.13;130198;1270;107627;-78
2022/04/16 13:43:58;;;;;;;2.90;2.40;;;;;;;10.72;38.41;101394.86;130182;1271;108930;-77
2022/04/16 13:47:05;;;;;;;3.30;2.20;;;;;;;10.50;39.26;101387.77;130154;1271;108755;-77
2022/04/16 13:50:11;;;;;;;2.20;1.80;;;;;;;10.58;39.81;101388.94;130156;1271;108831;-77
2022/04/16 13:53:17;;;;;;;2.90;1.70;;;;;;;10.71;38.62;101391.59;130243;1271;108720;-78
2022/04/16 13:56:22;;;;;;;2.50;1.80;;;;;;;10.79;38.39;101383.61;130173;1271;108794;-79
2022/04/16 13:59:29;;;;;;;2.90;1.90;;;;;;;10.76;39.15;101386.05;130173;1271;108828;-79
2022/04/16 14:02:35;;;;;;;2.60;1.70;;;;;;;10.87;39.77;101381.14;130219;1270;107729;-79
2022/04/16 14:05:46;;;;;;;3.10;2.30;;;;;;;11.05;40.14;101368.86;130172;1271;108859;-78
2022/04/16 14:08:52;;;;;;;2.50;1.80;;;;;;;11.07;38.45;101376.10;130147;1271;108658;-79
2022/04/16 14:11:58;;;;;;;3.10;2.00;;;;;;;11.00;39.28;101377.48;130137;1271;107096;-78
2022/04/16 14:15:04;;;;;;;6.20;4.50;;;;;;;10.98;39.83;101375.08;130216;1271;108882;-78
2022/04/16 14:18:10;;;;;;;4.10;2.50;;;;;;;10.79;38.07;101381.02;130255;1271;108821;-78
2022/04/16 14:21:16;;;;;;;5.20;3.50;;;;;;;10.70;37.98;101378.35;130290;1271;108743;-78
2022/04/16 14:24:21;;;;;;;4.90;2.90;;;;;;;10.76;37.58;101374.42;130234;1269;108959;-78
2022/04/16 14:27:27;;;;;;;4.10;2.20;;;;;;;10.82;38.26;101367.70;130222;1271;108830;-78
2022/04/16 14:30:36;;;;;;;3.20;2.50;;;;;;;10.80;39.51;101361.32;130296;1271;108804;-78
2022/04/16 14:33:43;;;;;;;5.40;2.40;;;;;;;10.81;39.38;101363.70;130392;1269;108668;-79